Hettinger, ND

10:11 AM MDT on August 28, 2014 (GMT -0600)
Hettinger Municipal | Change Station
CLOSE
Current Station
Airport
Location: Hettinger,
Elevation: 2703 ft
Nearby Weather Stations

Elev 2703 ft 46.01 °N, 102.66 °W | Updated 18 minutes ago

Overcast
Overcast
63 °F
Feels Like 63 °F
N
6
Wind Variable Wind from SE

Today
High -- | Low -- °F
--% Chance of Precip.
Yesterday
High -- | Low -- °F
Precip. -- in
6:06 AM 7:35 PM
Waxing Crescent, 9% visible
Pressure 29.95 in
Visibility 7.0 miles
Clouds Overcast 200 ft
Dew Point 61 °F
Humidity 93%
Rainfall 0.00 in
Snow Depth Not available.
UV 1 out of 12
Pollen 9.40 out of 12
Air Quality Not available.
Flu Activity Not available.
METAR KHEI 281553Z AUTO 14005KT 7SM OVC002 17/16 A2998 RMK AO2 SLP142 T01720161

More Conditions Fewer Conditions

Pressure 29.95 in
Visibility 7.0 miles
Clouds Overcast 200 ft
Dew Point 61 °F
Humidity 93%
Rainfall 0.00 in
Snow Depth Not available.
UV 1 out of 12
Pollen 9.40 out of 12
Air Quality Not available.
Flu Activity Not available.
METAR KHEI 281553Z AUTO 14005KT 7SM OVC002 17/16 A2998 RMK AO2 SLP142 T01720161

More Conditions Fewer Conditions

10-Day Weather Forecast

Almanac

Astronomy

Aug. 28, 2014 Rise Set
Actual Time 6:06 AM MDT 7:35 PM MDT
Civil Twilight 5:34 AM MDT 8:07 PM MDT
Nautical Twilight 4:56 AM MDT 8:44 PM MDT
Astronomical Twilight 4:15 AM MDT 9:25 PM MDT
Moon 9:12 AM MDT 8:48 PM MDT
Length of Visible Light 14h 32m
Length of Day
13h 29m
Tomorrow will be 3m 5s shorter.
Waxing Crescent, 9% of the Moon is Illuminated
Today
Waxing Crescent
Sep 2
First Quarter
Sep 8
Full
Sep 15
Last Quarter
Sep 24
New

Today's Extremes

State Highs State Lows

Community

WunderPhotos

Upload Photos

1,748,004 photos uploaded!

Nearby

Snow Depth

Station Depth Elevation
No new snow has been reported.

Earthquake Activity

City Distance Mag. Time & Date
No recent earthquake activity has been reported nearby.
Minimum magnitude displayed is 2.5.

Coastal Water Temperatures

Place Temperature
No Stations Reporting

Nearby Weather Stations